Time;durP1;ratioP1;P1;durP2;ratioP2;P2;SDS_P1;SDS_P2;PMS_P1;PMS_P2;Temp;Humidity;BMP_temperature;BMP_pressure;BME280_temperature;BME280_humidity;BME280_pressure;Samples;Min_cycle;Max_cycle;Signal;HPM_P1;HPM_P2
2022/05/26 00:00:36;;;;;;;38.92;31.95;;;;;;;15.46;79.56;96661.56;5114665;27;20020;-61
2022/05/26 00:03:02;;;;;;;39.72;30.08;;;;;;;15.48;79.23;96664.97;5114138;28;20024;-64
2022/05/26 00:05:28;;;;;;;38.50;28.60;;;;;;;15.46;79.12;96661.56;5114352;27;20043;-65
2022/05/26 00:07:54;;;;;;;34.30;28.50;;;;;;;15.39;79.33;96653.13;5114556;28;20038;-61
2022/05/26 00:10:20;;;;;;;46.10;33.80;;;;;;;15.28;79.12;96663.41;5114434;28;20050;-61
2022/05/26 00:12:46;;;;;;;39.13;32.08;;;;;;;15.30;79.97;96664.19;5113043;28;20024;-64
2022/05/26 00:15:12;;;;;;;35.13;29.48;;;;;;;15.27;79.50;96656.47;5114248;28;20457;-63
2022/05/26 00:17:38;;;;;;;33.40;28.00;;;;;;;15.23;79.33;96655.78;5114398;28;20092;-64
2022/05/26 00:20:06;;;;;;;35.53;27.38;;;;;;;15.20;79.27;96657.75;5114432;28;20027;-61
2022/05/26 00:22:32;;;;;;;37.60;31.27;;;;;;;15.15;79.01;96653.53;5114380;28;20116;-63
2022/05/26 00:24:58;;;;;;;40.00;34.25;;;;;;;15.13;79.98;96659.84;5114070;28;20027;-61
2022/05/26 00:27:24;;;;;;;43.75;33.88;;;;;;;15.09;81.05;96648.63;5114165;28;20019;-62
2022/05/26 00:29:50;;;;;;;38.08;32.17;;;;;;;15.09;80.68;96638.09;5113993;28;20106;-62
2022/05/26 00:32:16;;;;;;;34.90;29.48;;;;;;;15.10;80.03;96642.44;5113895;28;20122;-64
2022/05/26 00:34:41;;;;;;;38.70;33.60;;;;;;;15.05;80.32;96646.25;5114006;28;20024;-62
2022/05/26 00:37:08;;;;;;;41.45;30.88;;;;;;;15.05;80.57;96646.25;5114008;28;20084;-65
2022/05/26 00:39:35;;;;;;;39.55;32.85;;;;;;;15.05;80.47;96635.72;5113805;28;20500;-63
2022/05/26 00:42:04;;;;;;;35.03;29.60;;;;;;;15.06;80.05;96630.38;5113804;28;20019;-64
2022/05/26 00:44:31;;;;;;;39.17;31.60;;;;;;;15.01;80.20;96632.38;5113799;28;20118;-61
2022/05/26 00:47:11;;;;;;;38.50;31.73;;;;;;;15.02;80.24;96636.75;5113831;28;20034;-62
2022/05/26 00:49:51;;;;;;;37.80;31.52;;;;;;;15.00;79.94;96630.69;5113856;28;20160;-62
2022/05/26 00:52:22;;;;;;;42.35;34.55;;;;;;;14.94;80.02;96628.38;5113628;28;20469;-62
2022/05/26 00:54:51;;;;;;;44.75;35.95;;;;;;;14.95;80.47;96635.34;5113676;28;20031;-61
2022/05/26 00:57:23;;;;;;;47.67;37.25;;;;;;;14.90;81.17;96631.19;5113756;28;20072;-62
2022/05/26 00:59:59;;;;;;;41.78;33.72;;;;;;;14.98;81.20;96632.56;5113661;28;20108;-62
2022/05/26 01:02:33;;;;;;;36.15;30.73;;;;;;;14.96;81.07;96626.53;5113658;28;20020;-64
2022/05/26 01:05:03;;;;;;;38.03;30.85;;;;;;;14.93;79.08;96622.25;5113490;28;20381;-63
2022/05/26 01:07:36;;;;;;;42.50;33.93;;;;;;;14.81;80.25;96615.88;5113651;28;20114;-62
2022/05/26 01:10:04;;;;;;;36.30;31.90;;;;;;;14.81;80.35;96617.69;5113616;28;20587;-65
2022/05/26 01:12:29;;;;;;;42.03;33.92;;;;;;;14.80;80.47;96623.84;5113435;28;20016;-62
2022/05/26 01:15:02;;;;;;;41.53;32.60;;;;;;;14.81;80.47;96629.03;5113593;28;20389;-61
2022/05/26 01:18:09;;;;;;;37.22;31.33;;;;;;;14.82;80.56;96632.53;5117832;28;20034;-63
2022/05/26 01:21:36;;;;;;;37.05;29.30;;;;;;;14.78;80.05;96631.88;5117807;28;20027;-62
2022/05/26 01:24:24;;;;;;;37.20;29.17;;;;;;;14.73;80.05;96626.81;5093804;28;20386;-62
2022/05/26 01:27:14;;;;;;;36.72;31.90;;;;;;;14.70;80.02;96626.13;5117530;28;20034;-64
2022/05/26 01:30:21;;;;;;;42.10;32.28;;;;;;;14.71;80.29;96617.28;5117495;28;20532;-62
2022/05/26 01:33:21;;;;;;;38.45;32.15;;;;;;;14.63;80.40;96618.53;5116395;28;20071;-62
2022/05/26 01:36:20;;;;;;;34.08;30.35;;;;;;;14.63;80.14;96610.63;5117479;28;20050;-62
2022/05/26 01:39:01;;;;;;;37.08;30.77;;;;;;;14.61;80.29;96609.88;5117486;28;20069;-62
2022/05/26 01:41:45;;;;;;;42.10;30.88;;;;;;;14.58;80.42;96606.56;5117416;28;20042;-61
2022/05/26 01:44:42;;;;;;;38.22;30.40;;;;;;;14.57;80.33;96610.97;5115909;28;20031;-63
2022/05/26 01:47:39;;;;;;;43.90;30.42;;;;;;;14.53;80.14;96625.22;5117302;28;20042;-64
2022/05/26 01:50:20;;;;;;;35.33;28.75;;;;;;;14.49;80.06;96614.03;5117300;28;20034;-63
2022/05/26 01:53:06;;;;;;;;;;;;;;;14.48;79.70;96612.31;5117780;28;20502;-63
2022/05/26 01:55:49;;;;;;;45.38;36.45;;;;;;;14.45;81.20;96607.19;5117002;28;19908;-63
2022/05/26 01:58:28;;;;;;;44.63;34.50;;;;;;;14.34;82.13;96601.66;5117204;28;20028;-62
2022/05/26 02:00:56;;;;;;;43.38;36.03;;;;;;;14.36;81.97;96613.78;5116990;28;20524;-62
2022/05/26 02:03:25;;;;;;;43.75;34.17;;;;;;;14.38;81.93;96609.31;5116837;28;20024;-64
2022/05/26 02:05:57;;;;;;;42.08;32.97;;;;;;;14.40;81.42;96602.19;5116675;28;20069;-62
2022/05/26 02:08:34;;;;;;;59.25;41.53;;;;;;;14.40;82.28;96598.72;5117038;28;20051;-64
2022/05/26 02:11:07;;;;;;;48.53;37.17;;;;;;;14.37;82.45;96604.13;5116908;28;20030;-62
2022/05/26 02:13:50;;;;;;;53.58;39.30;;;;;;;14.31;82.70;96592.16;5116825;28;20433;-64
2022/05/26 02:16:30;;;;;;;49.05;35.55;;;;;;;14.37;82.46;96591.84;5116757;28;20023;-65
2022/05/26 02:19:07;;;;;;;50.38;39.97;;;;;;;14.39;82.87;96607.53;5116718;28;20055;-64
2022/05/26 02:21:54;;;;;;;46.42;32.05;;;;;;;14.43;82.56;96616.13;5116737;28;20545;-63
2022/05/26 02:24:28;;;;;;;37.28;30.52;;;;;;;14.42;81.78;96612.63;5116659;28;20035;-63
2022/05/26 02:26:54;;;;;;;42.38;34.05;;;;;;;14.32;81.79;96611.41;5115911;28;20020;-62
2022/05/26 02:32:06;;;;;;;51.20;38.17;;;;;;;14.21;82.37;96598.81;5116223;28;20059;-64
2022/05/26 02:34:34;;;;;;;46.15;34.65;;;;;;;14.25;82.63;96601.22;5116299;28;20027;-62
2022/05/26 02:37:01;;;;;;;44.80;34.22;;;;;;;14.28;82.67;96608.09;5116302;27;20150;-65
2022/05/26 02:39:28;;;;;;;47.60;34.83;;;;;;;14.28;82.52;96610.72;5116145;27;20027;-64
2022/05/26 02:41:56;;;;;;;44.55;33.67;;;;;;;14.20;82.20;96603.22;5116320;27;20485;-63
2022/05/26 02:44:24;;;;;;;42.58;32.08;;;;;;;14.20;82.46;96611.13;5116059;28;20042;-63
2022/05/26 02:47:24;;;;;;;43.55;33.95;;;;;;;14.24;82.83;96627.59;5116199;28;20030;-61
2022/05/26 02:50:16;;;;;;;42.77;34.00;;;;;;;14.25;83.12;96619.63;5116132;28;20031;-64
2022/05/26 02:52:58;;;;;;;42.90;32.90;;;;;;;14.21;82.74;96620.69;5116001;27;20343;-62
2022/05/26 02:55:58;;;;;;;44.83;31.95;;;;;;;14.23;82.16;96612.72;5116014;28;20431;-63
2022/05/26 02:58:41;;;;;;;42.90;34.57;;;;;;;14.21;82.21;96618.06;5116020;28;20028;-64
2022/05/26 03:01:23;;;;;;;35.92;29.55;;;;;;;14.20;81.81;96605.84;5115825;28;20023;-65
2022/05/26 03:03:56;;;;;;;35.13;28.30;;;;;;;14.21;81.21;96620.69;5115757;27;20032;-63
2022/05/26 03:06:25;;;;;;;38.40;30.95;;;;;;;14.20;81.14;96612.88;5115545;28;20040;-65
2022/05/26 03:08:53;;;;;;;41.63;30.15;;;;;;;14.15;81.00;96616.63;5115744;28;20023;-64
2022/05/26 03:11:23;;;;;;;40.67;31.42;;;;;;;14.14;81.16;96614.91;5115635;28;20062;-63
2022/05/26 03:13:50;;;;;;;38.28;29.20;;;;;;;14.12;81.35;96616.75;5115743;28;20027;-61
2022/05/26 03:16:16;;;;;;;42.38;29.30;;;;;;;14.19;81.06;96619.09;5115423;28;20019;-63
2022/05/26 03:18:42;;;;;;;37.45;29.83;;;;;;;14.16;81.16;96614.84;5115361;28;20470;-61
2022/05/26 03:21:09;;;;;;;44.63;32.65;;;;;;;14.11;81.90;96614.22;5115396;28;20039;-64
2022/05/26 03:23:37;;;;;;;37.90;31.50;;;;;;;14.16;82.07;96606.94;5115226;28;20016;-64
2022/05/26 03:26:05;;;;;;;60.15;38.60;;;;;;;14.20;82.76;96605.00;5115300;28;20020;-61
2022/05/26 03:28:31;;;;;;;49.05;38.13;;;;;;;14.26;84.75;96610.81;5115177;28;20069;-64
2022/05/26 03:30:58;;;;;;;48.70;34.55;;;;;;;14.31;84.41;96607.94;5114931;28;20034;-63
2022/05/26 03:33:25;;;;;;;44.25;34.67;;;;;;;14.40;83.58;96614.50;5115343;28;20020;-64
2022/05/26 03:41:26;;;;;;;44.28;33.90;;;;;;;14.84;85.48;96605.19;5115379;28;20038;-64
2022/05/26 03:43:57;;;;;;;40.03;31.13;;;;;;;15.02;83.85;96610.41;5114933;28;20012;-61
2022/05/26 03:46:25;;;;;;;44.45;34.45;;;;;;;15.22;83.11;96609.28;5114871;28;20032;-63
2022/05/26 03:48:51;;;;;;;37.00;28.80;;;;;;;15.54;82.70;96611.88;5114878;28;20024;-62
2022/05/26 03:51:17;;;;;;;31.70;27.77;;;;;;;15.81;80.79;96613.03;5114719;28;20019;-62
2022/05/26 03:53:42;;;;;;;35.38;28.80;;;;;;;16.07;80.53;96608.03;5114653;28;20031;-61
2022/05/26 03:56:08;;;;;;;25.92;22.45;;;;;;;16.36;78.93;96616.00;5114852;28;20031;-64
2022/05/26 03:58:35;;;;;;;38.00;29.92;;;;;;;16.60;77.43;96614.59;5114659;28;20020;-64
2022/05/26 04:01:06;;;;;;;33.92;28.10;;;;;;;16.92;78.06;96614.41;5114707;28;20116;-64
2022/05/26 04:03:33;;;;;;;27.13;23.55;;;;;;;17.27;76.78;96611.34;5114656;27;20028;-64
2022/05/26 04:05:59;;;;;;;24.05;21.48;;;;;;;17.61;74.66;96623.31;5114405;28;20026;-63
2022/05/26 04:08:24;;;;;;;26.38;23.58;;;;;;;17.96;74.36;96616.63;5114515;28;20448;-63
2022/05/26 04:10:51;;;;;;;24.52;21.88;;;;;;;18.19;73.54;96613.31;5114504;28;20076;-61
2022/05/26 04:13:16;;;;;;;26.25;23.45;;;;;;;18.40;72.56;96618.13;5114407;28;20411;-61
2022/05/26 04:15:42;;;;;;;29.88;24.45;;;;;;;18.66;72.51;96623.41;5114325;28;20026;-63
2022/05/26 04:18:07;;;;;;;33.85;23.35;;;;;;;18.95;72.58;96622.31;5114149;28;20050;-62
2022/05/26 04:20:33;;;;;;;30.55;24.17;;;;;;;19.16;71.93;96619.97;5114322;28;20016;-64
2022/05/26 04:22:59;;;;;;;26.63;21.60;;;;;;;19.50;70.69;96621.13;5114361;28;20023;-63
2022/05/26 04:25:26;;;;;;;29.25;24.85;;;;;;;19.93;69.90;96625.88;5114191;28;20038;-63
2022/05/26 04:27:53;;;;;;;25.17;21.77;;;;;;;20.31;68.70;96624.00;5114095;28;20020;-63
2022/05/26 04:30:21;;;;;;;27.15;20.73;;;;;;;20.68;67.58;96633.56;5112748;28;20381;-62
2022/05/26 04:32:46;;;;;;;26.13;22.92;;;;;;;21.04;66.43;96637.97;5113879;28;20047;-64
2022/05/26 04:35:13;;;;;;;26.27;22.70;;;;;;;21.42;65.88;96639.38;5113911;28;20046;-61
2022/05/26 04:37:38;;;;;;;26.38;23.38;;;;;;;21.79;64.95;96640.03;5113911;28;20028;-62
2022/05/26 04:40:08;;;;;;;28.88;21.65;;;;;;;22.08;63.77;96645.59;5114012;28;20142;-63
2022/05/26 04:42:34;;;;;;;28.80;22.27;;;;;;;22.45;63.68;96651.44;5114135;28;20080;-63
2022/05/26 04:45:00;;;;;;;29.35;23.50;;;;;;;22.80;62.96;96649.44;5113908;28;20035;-62
2022/05/26 04:47:26;;;;;;;29.58;22.58;;;;;;;23.20;62.17;96656.63;5113835;28;20167;-61
2022/05/26 04:49:52;;;;;;;23.45;20.35;;;;;;;23.52;61.18;96656.59;5113530;28;20034;-61
2022/05/26 04:52:20;;;;;;;29.13;22.75;;;;;;;23.79;60.42;96661.28;5113833;28;20417;-64
2022/05/26 04:54:49;;;;;;;24.20;21.08;;;;;;;24.02;60.75;96660.19;5113863;28;20485;-62
2022/05/26 04:57:18;;;;;;;26.17;23.17;;;;;;;24.05;59.93;96662.56;5113755;28;20022;-64
2022/05/26 04:59:44;;;;;;;27.83;24.17;;;;;;;23.96;60.31;96661.59;5113643;28;20028;-63
2022/05/26 05:02:13;;;;;;;29.13;23.42;;;;;;;23.79;61.20;96669.28;5113497;28;20485;-62
2022/05/26 05:04:41;;;;;;;30.30;24.73;;;;;;;23.60;61.37;96665.59;5113580;28;20116;-63
2022/05/26 05:07:09;;;;;;;29.45;25.20;;;;;;;23.43;62.20;96661.78;5113618;28;20024;-64
2022/05/26 05:09:39;;;;;;;33.40;26.90;;;;;;;23.17;62.40;96664.03;5113517;28;20033;-64
2022/05/26 05:12:06;;;;;;;31.58;28.02;;;;;;;23.03;63.04;96667.94;5113631;28;20016;-61
2022/05/26 05:14:52;;;;;;;34.22;29.48;;;;;;;22.90;63.66;96666.31;5113547;28;20019;-64
2022/05/26 05:17:20;;;;;;;35.08;27.75;;;;;;;22.91;64.62;96662.66;5113541;28;20026;-61
2022/05/26 05:19:47;;;;;;;32.78;26.70;;;;;;;22.99;64.84;96655.84;5113353;28;20039;-61
2022/05/26 05:22:31;;;;;;;29.80;26.58;;;;;;;23.05;64.89;96665.97;5113576;28;20024;-63
2022/05/26 05:24:59;;;;;;;31.50;26.48;;;;;;;23.05;64.79;96671.28;5113290;28;20080;-63
2022/05/26 05:27:39;;;;;;;32.83;28.13;;;;;;;23.07;65.09;96674.69;5113344;28;20122;-63
2022/05/26 05:30:19;;;;;;;35.63;28.92;;;;;;;23.16;64.72;96675.69;5113531;28;20023;-62
2022/05/26 05:32:59;;;;;;;33.35;28.35;;;;;;;23.16;64.80;96684.56;5113221;28;20438;-64
2022/05/26 05:35:33;;;;;;;40.13;28.25;;;;;;;23.23;63.77;96687.50;5113310;28;20101;-64
2022/05/26 05:38:01;;;;;;;32.08;27.65;;;;;;;23.33;63.96;96690.22;5113360;28;20024;-61
2022/05/26 05:40:26;;;;;;;34.05;27.45;;;;;;;23.52;64.41;96685.94;5113380;28;20020;-64
2022/05/26 05:42:52;;;;;;;32.95;28.02;;;;;;;23.75;64.87;96685.72;5113350;28;20031;-64
2022/05/26 05:45:18;;;;;;;34.08;26.88;;;;;;;24.03;63.84;96696.56;5113094;28;20031;-62
2022/05/26 05:47:44;;;;;;;30.95;25.92;;;;;;;24.23;62.73;96705.50;5113153;28;20023;-61
2022/05/26 05:50:10;;;;;;;31.23;26.17;;;;;;;24.52;62.11;96707.28;5113267;28;20374;-62
2022/05/26 05:52:36;;;;;;;28.30;25.17;;;;;;;24.81;60.93;96702.88;5113244;28;20423;-61
2022/05/26 05:55:04;;;;;;;32.13;26.17;;;;;;;25.09;60.64;96708.31;5113208;28;20039;-63
2022/05/26 05:57:30;;;;;;;31.17;25.48;;;;;;;25.40;58.71;96701.88;5113076;28;20027;-63
2022/05/26 05:59:56;;;;;;;31.10;24.85;;;;;;;25.79;57.27;96704.34;5113023;28;20469;-63
2022/05/26 06:02:21;;;;;;;32.00;24.05;;;;;;;26.16;57.00;96702.56;5115557;28;20073;-62
2022/05/26 06:04:47;;;;;;;30.45;25.35;;;;;;;26.60;55.85;96703.59;5116862;28;20020;-62
2022/05/26 06:07:18;;;;;;;30.63;23.58;;;;;;;27.06;55.11;96706.13;5116956;28;20377;-61
2022/05/26 06:09:45;;;;;;;27.92;23.05;;;;;;;27.46;53.68;96708.34;5116837;28;20027;-61
2022/05/26 06:12:12;;;;;;;24.88;22.27;;;;;;;27.92;52.08;96712.53;5116846;28;20442;-62
2022/05/26 06:14:40;;;;;;;30.88;23.73;;;;;;;28.29;50.72;96719.34;5116741;28;20019;-61
2022/05/26 06:17:07;;;;;;;32.28;24.95;;;;;;;28.64;49.33;96721.88;5116723;28;20488;-61
2022/05/26 06:19:34;;;;;;;28.92;23.17;;;;;;;28.94;47.95;96719.53;5116602;28;20027;-62
2022/05/26 06:22:09;;;;;;;27.00;22.70;;;;;;;29.21;47.39;96722.84;5116805;28;20041;-61
2022/05/26 06:24:36;;;;;;;28.75;22.98;;;;;;;29.33;47.33;96726.00;5116423;28;20031;-63
2022/05/26 06:29:49;;;;;;;30.65;23.02;;;;;;;29.58;49.24;96727.78;5116429;28;20020;-61
2022/05/26 06:29:51;;;;;;;27.88;23.13;;;;;;;29.76;48.13;96719.44;5116427;28;20585;-62
2022/05/26 06:37:51;;;;;;;29.52;22.77;;;;;;;30.29;47.83;96718.84;5116600;28;20061;-62
2022/05/26 06:40:17;;;;;;;28.50;21.25;;;;;;;30.33;47.51;96717.44;5116313;28;20040;-62
2022/05/26 06:42:46;;;;;;;25.63;22.17;;;;;;;30.46;47.39;96714.16;5116397;28;20031;-61
2022/05/26 06:45:15;;;;;;;29.60;20.23;;;;;;;30.37;46.92;96715.25;5116151;27;20492;-63
2022/05/26 06:47:41;;;;;;;22.38;19.67;;;;;;;30.31;45.36;96705.19;5116316;28;20378;-62
2022/05/26 06:50:08;;;;;;;25.65;20.33;;;;;;;30.33;46.50;96711.22;5115963;28;20015;-63
2022/05/26 06:52:34;;;;;;;27.40;19.85;;;;;;;30.19;45.66;96713.66;5116144;28;20023;-61
2022/05/26 06:55:04;;;;;;;24.38;19.83;;;;;;;30.35;45.50;96709.19;5116049;27;20473;-62
2022/05/26 06:57:29;;;;;;;29.58;18.55;;;;;;;30.51;46.39;96713.59;5116000;28;20034;-62
2022/05/26 06:59:55;;;;;;;25.65;18.90;;;;;;;30.68;44.43;96716.16;5115925;28;20028;-63
2022/05/26 07:02:21;;;;;;;22.08;16.52;;;;;;;30.81;43.98;96721.81;5115857;27;20047;-63
2022/05/26 07:04:47;;;;;;;17.67;12.98;;;;;;;30.75;41.56;96717.97;5115811;28;20033;-63
2022/05/26 07:07:15;;;;;;;15.88;10.65;;;;;;;30.41;39.10;96715.72;5115800;28;20106;-61
2022/05/26 07:09:41;;;;;;;22.30;13.90;;;;;;;30.36;41.98;96729.72;5115757;28;20016;-61
2022/05/26 07:12:08;;;;;;;22.10;12.52;;;;;;;30.30;40.68;96730.44;5115210;27;20019;-62
2022/05/26 07:14:34;;;;;;;20.25;10.38;;;;;;;30.39;39.09;96718.59;5114683;28;20496;-61
2022/05/26 07:17:00;;;;;;;15.52;11.55;;;;;;;30.41;41.46;96721.09;5115716;28;20020;-62
2022/05/26 07:19:26;;;;;;;26.27;10.55;;;;;;;30.44;40.77;96727.00;5115450;28;20015;-61
2022/05/26 07:21:52;;;;;;;17.25;9.50;;;;;;;30.41;39.21;96724.66;5115458;28;20031;-61
2022/05/26 07:24:24;;;;;;;14.65;7.88;;;;;;;30.22;38.34;96723.28;5115338;28;20045;-62
2022/05/26 07:26:50;;;;;;;13.13;7.60;;;;;;;30.25;37.33;96729.13;5115374;28;20092;-62
2022/05/26 07:29:17;;;;;;;16.77;7.57;;;;;;;30.40;36.52;96728.38;5115303;28;20020;-61
2022/05/26 07:31:43;;;;;;;21.20;8.48;;;;;;;30.67;38.53;96733.38;5115106;28;20036;-61
2022/05/26 07:34:09;;;;;;;21.52;8.10;;;;;;;30.70;35.62;96725.75;5115209;27;20042;-62
2022/05/26 07:42:08;;;;;;;19.92;7.80;;;;;;;31.02;36.82;96734.59;5115431;28;20526;-61
2022/05/26 07:44:39;;;;;;;15.95;7.47;;;;;;;31.10;37.05;96739.09;5114945;28;20046;-61
2022/05/26 07:47:07;;;;;;;16.23;6.45;;;;;;;30.56;34.23;96748.13;5115031;28;20404;-63
2022/05/26 07:49:34;;;;;;;14.05;7.20;;;;;;;30.55;36.80;96752.69;5114822;28;20027;-63
2022/05/26 07:52:01;;;;;;;14.52;7.05;;;;;;;30.50;36.02;96747.84;5114757;28;20106;-61
2022/05/26 07:54:30;;;;;;;18.85;8.32;;;;;;;30.38;35.64;96750.13;5114771;28;20027;-60
2022/05/26 07:56:58;;;;;;;17.33;7.65;;;;;;;30.32;36.12;96758.94;5114914;28;20023;-61
2022/05/26 07:59:24;;;;;;;18.45;7.43;;;;;;;30.34;35.95;96751.50;5114747;28;20130;-61
2022/05/26 08:01:50;;;;;;;15.60;6.03;;;;;;;30.21;37.53;96752.09;5114615;28;20026;-61
2022/05/26 08:04:16;;;;;;;14.32;7.30;;;;;;;30.18;35.15;96746.19;5114373;28;20049;-63
2022/05/26 08:06:46;;;;;;;12.73;6.85;;;;;;;30.26;38.51;96751.56;5114520;28;20059;-63
2022/05/26 08:09:20;;;;;;;20.10;7.22;;;;;;;30.52;35.32;96748.50;5114542;28;20491;-61
2022/05/26 08:11:47;;;;;;;13.45;7.40;;;;;;;30.77;34.93;96750.19;5114582;28;20039;-60
2022/05/26 08:14:14;;;;;;;21.20;7.65;;;;;;;30.97;36.98;96750.50;5114399;28;20027;-60
2022/05/26 08:16:40;;;;;;;16.88;6.72;;;;;;;31.24;36.48;96755.50;5114429;28;20374;-61
2022/05/26 08:19:06;;;;;;;13.88;6.72;;;;;;;31.37;34.99;96753.03;5114370;28;20023;-64
2022/05/26 08:21:33;;;;;;;17.45;7.45;;;;;;;31.54;34.96;96758.22;5114334;28;20465;-63
2022/05/26 08:24:00;;;;;;;14.55;7.05;;;;;;;31.77;32.44;96757.28;5113844;28;20109;-63
2022/05/26 08:26:28;;;;;;;11.65;6.07;;;;;;;31.98;32.15;96761.94;5114196;28;20111;-62
2022/05/26 08:28:54;;;;;;;22.38;6.85;;;;;;;32.02;34.64;96760.53;5114179;28;20024;-63
2022/05/26 08:31:21;;;;;;;17.70;6.57;;;;;;;32.27;33.27;96760.16;5113990;28;20393;-61
2022/05/26 08:33:46;;;;;;;13.43;5.45;;;;;;;32.43;32.36;96768.22;5114091;28;20054;-63
2022/05/26 08:36:24;;;;;;;17.63;6.10;;;;;;;32.43;32.06;96760.09;5114124;28;20027;-60
2022/05/26 08:38:51;;;;;;;15.18;6.28;;;;;;;32.53;31.18;96761.50;5114017;28;20039;-61
2022/05/26 08:41:21;;;;;;;16.55;5.45;;;;;;;32.59;30.45;96765.28;5113968;28;20061;-61
2022/05/26 08:44:05;;;;;;;19.83;5.40;;;;;;;32.48;30.67;96763.09;5113933;28;20067;-61
2022/05/26 08:46:46;;;;;;;11.95;4.70;;;;;;;32.49;31.92;96767.50;5113925;28;20492;-61
2022/05/26 08:49:35;;;;;;;19.13;5.20;;;;;;;32.68;30.42;96770.59;5113991;28;20457;-62
2022/05/26 08:52:08;;;;;;;12.50;4.82;;;;;;;32.74;31.18;96770.63;5113744;28;20479;-63
2022/05/26 08:54:44;;;;;;;16.25;5.20;;;;;;;32.87;30.44;96782.63;5113806;28;20561;-62
2022/05/26 08:57:14;;;;;;;12.93;4.65;;;;;;;32.86;30.12;96787.19;5113807;28;20077;-63
2022/05/26 08:59:45;;;;;;;13.55;4.93;;;;;;;32.58;30.44;96779.03;5113684;28;20026;-61
2022/05/26 09:02:36;;;;;;;13.80;5.60;;;;;;;32.49;32.73;96786.44;5112554;28;20381;-60
2022/05/26 09:05:16;;;;;;;16.35;5.72;;;;;;;32.13;31.30;96780.84;5103655;28;20508;-59
2022/05/26 09:13:53;;;;;;;12.15;5.75;;;;;;;31.32;34.06;96790.50;5113950;28;20034;-61
2022/05/26 09:16:20;;;;;;;12.07;6.57;;;;;;;31.33;35.00;96791.38;5113506;28;20038;-60
2022/05/26 09:19:11;;;;;;;13.60;5.82;;;;;;;31.35;34.34;96789.31;5113493;28;20099;-60
2022/05/26 09:21:37;;;;;;;18.67;6.03;;;;;;;31.51;34.19;96789.16;5113469;28;20027;-63
2022/05/26 09:24:24;;;;;;;14.32;5.70;;;;;;;31.62;32.89;96787.00;5113270;28;20035;-61
2022/05/26 09:27:00;;;;;;;15.30;6.40;;;;;;;31.47;32.14;96782.44;5113546;28;20035;-62
2022/05/26 09:29:29;;;;;;;15.80;5.70;;;;;;;31.34;34.18;96795.72;5113376;28;20028;-60
2022/05/26 09:31:57;;;;;;;11.13;5.80;;;;;;;31.40;33.19;96795.03;5113103;28;20040;-63
2022/05/26 09:34:28;;;;;;;12.68;5.40;;;;;;;31.52;33.48;96790.00;5113318;28;20039;-60
2022/05/26 09:37:02;;;;;;;16.33;5.90;;;;;;;31.74;33.57;96801.75;5115339;28;20023;-61
2022/05/26 09:39:42;;;;;;;9.40;5.10;;;;;;;31.78;32.24;96789.53;5117513;28;20120;-61
2022/05/26 09:42:17;;;;;;;14.30;6.03;;;;;;;31.80;32.56;96796.59;5117520;28;20143;-62
2022/05/26 09:45:04;;;;;;;18.67;5.90;;;;;;;31.68;32.70;96788.97;5117290;28;20027;-63
2022/05/26 09:47:54;;;;;;;13.98;5.82;;;;;;;31.66;33.28;96788.31;5117315;28;20054;-61
2022/05/26 09:50:37;;;;;;;;;;;;;;;31.57;31.75;96787.56;5117779;28;20035;-61
2022/05/26 09:53:10;;;;;;;10.05;5.18;;;;;;;31.54;32.58;96800.63;5117274;28;19918;-61
2022/05/26 09:55:47;;;;;;;11.70;5.68;;;;;;;31.36;32.08;96791.03;5117177;28;20102;-62
2022/05/26 09:58:16;;;;;;;13.18;4.97;;;;;;;31.40;32.25;96789.63;5117117;28;20426;-60
2022/05/26 10:00:47;;;;;;;18.55;5.43;;;;;;;31.38;32.42;96789.81;5117141;28;20088;-60
2022/05/26 10:03:34;;;;;;;11.15;6.28;;;;;;;31.12;33.25;96784.81;5116829;28;20477;-61
2022/05/26 10:06:18;;;;;;;16.38;5.43;;;;;;;30.95;33.74;96784.13;5117048;27;20469;-60
2022/05/26 10:08:58;;;;;;;12.43;5.10;;;;;;;31.20;34.40;96790.13;5116842;28;20031;-63
2022/05/26 10:11:54;;;;;;;11.20;4.85;;;;;;;31.26;31.88;96799.34;5116819;28;20444;-61
2022/05/26 10:14:47;;;;;;;14.23;5.05;;;;;;;31.47;33.05;96798.66;5117061;28;20104;-61
2022/05/26 10:17:28;;;;;;;15.05;5.55;;;;;;;31.59;33.35;96790.94;5116896;28;20051;-62
2022/05/26 10:20:31;;;;;;;9.45;4.50;;;;;;;31.70;32.02;96789.63;5116751;28;20031;-60
2022/05/26 10:23:21;;;;;;;15.02;5.03;;;;;;;31.93;34.61;96795.97;5116542;28;20059;-63
2022/05/26 10:26:14;;;;;;;20.05;4.85;;;;;;;31.87;32.69;96800.22;5116548;28;20036;-63
2022/05/26 10:29:02;;;;;;;13.93;4.63;;;;;;;31.80;32.00;96785.78;5116538;28;20027;-61
2022/05/26 10:51:06;;;;;;;14.52;5.40;;;;;;;31.49;34.17;96776.88;5131587;27;20378;-61
2022/05/26 10:53:56;;;;;;;13.35;4.90;;;;;;;31.40;33.22;96787.75;5131447;28;20039;-62
2022/05/26 10:56:26;;;;;;;11.63;4.93;;;;;;;31.54;34.67;96770.91;5131249;27;20023;-59
2022/05/26 10:59:04;;;;;;;16.20;4.35;;;;;;;31.52;33.19;96776.50;5131152;27;20050;-62
2022/05/26 11:01:41;;;;;;;15.07;5.13;;;;;;;31.74;32.69;96781.97;5131383;27;20511;-63
2022/05/26 11:04:31;;;;;;;13.82;5.20;;;;;;;31.67;32.39;96786.47;5131148;27;20035;-62
2022/05/26 11:07:03;;;;;;;23.43;5.23;;;;;;;31.60;32.32;96779.09;5131120;27;20023;-61
2022/05/26 11:09:46;;;;;;;12.48;4.85;;;;;;;31.40;32.82;96770.72;5131145;27;20026;-60
2022/05/26 11:12:20;;;;;;;7.00;4.20;;;;;;;31.12;33.70;96771.31;5131098;27;20537;-62
2022/05/26 11:18:00;;;;;;;14.20;5.55;;;;;;;31.12;35.36;96774.03;5131150;28;20156;-62
2022/05/26 11:20:36;;;;;;;12.00;4.75;;;;;;;31.13;34.99;96772.97;5130938;27;20118;-61
2022/05/26 11:23:03;;;;;;;11.68;4.90;;;;;;;31.09;35.06;96763.59;5130987;27;20020;-61
2022/05/26 11:25:39;;;;;;;8.68;4.28;;;;;;;31.10;34.66;96759.84;5130748;27;20020;-63
2022/05/26 11:28:13;;;;;;;11.05;4.72;;;;;;;30.98;33.45;96757.59;5130773;27;20023;-62
2022/05/26 11:36:46;;;;;;;7.30;4.63;;;;;;;31.26;31.00;96759.69;5130584;28;20464;-62
2022/05/26 11:39:23;;;;;;;13.73;5.55;;;;;;;31.27;31.73;96745.16;5130534;27;20127;-61
2022/05/26 11:42:01;;;;;;;14.27;4.70;;;;;;;31.29;32.38;96739.56;5130392;27;20027;-60
2022/05/26 11:44:56;;;;;;;13.27;4.75;;;;;;;31.34;32.93;96757.91;5130338;27;20024;-62
2022/05/26 11:47:48;;;;;;;7.53;4.15;;;;;;;31.24;33.52;96755.50;5130344;27;20042;-61
2022/05/26 11:50:24;;;;;;;9.95;4.55;;;;;;;31.02;33.34;96748.09;5126347;27;20050;-62
2022/05/26 11:52:53;;;;;;;10.90;4.68;;;;;;;31.17;34.13;96746.44;5116648;28;20023;-61
2022/05/26 11:55:45;;;;;;;12.57;4.78;;;;;;;31.34;33.51;96742.56;5116395;28;20030;-60
2022/05/26 11:58:33;;;;;;;11.05;4.75;;;;;;;31.44;33.15;96746.84;5116457;28;20043;-61
2022/05/26 12:01:12;;;;;;;11.90;4.93;;;;;;;31.63;33.17;96734.63;5116534;28;20527;-60
2022/05/26 12:03:53;;;;;;;14.97;4.83;;;;;;;31.55;32.95;96727.47;5116734;28;20024;-62
2022/05/26 12:06:34;;;;;;;8.45;4.68;;;;;;;31.62;33.02;96733.81;5116289;28;20042;-61
2022/05/26 12:09:04;;;;;;;13.73;4.55;;;;;;;31.69;32.82;96733.88;5116247;28;20032;-62
2022/05/26 12:11:59;;;;;;;13.05;4.43;;;;;;;31.47;32.66;96738.38;5116190;28;20376;-61
2022/05/26 12:14:27;;;;;;;13.00;4.40;;;;;;;31.33;32.42;96721.94;5116195;28;20164;-60
2022/05/26 12:17:32;;;;;;;13.10;4.40;;;;;;;31.42;34.31;96730.81;5116084;28;20104;-62
2022/05/26 12:20:03;;;;;;;9.98;4.38;;;;;;;31.25;33.03;96731.00;5115936;27;20039;-61
2022/05/26 12:22:47;;;;;;;17.27;4.43;;;;;;;31.10;32.59;96724.75;5115883;27;20043;-61
2022/05/26 12:25:27;;;;;;;12.13;4.32;;;;;;;31.11;32.35;96735.38;5116076;28;20492;-64
2022/05/26 12:27:57;;;;;;;;;;;;;;;30.97;32.85;96730.78;5116570;28;20066;-62
2022/05/26 12:30:37;;;;;;;9.07;4.40;;;;;;;31.12;31.83;96722.72;5115785;28;19912;-62
2022/05/26 12:33:28;;;;;;;11.55;4.50;;;;;;;31.23;34.77;96721.38;5115835;28;20038;-62
2022/05/26 12:36:00;;;;;;;12.23;3.88;;;;;;;31.12;32.94;96714.59;5115776;28;20031;-63
2022/05/26 12:38:44;;;;;;;9.88;4.20;;;;;;;31.16;33.11;96715.91;5115636;28;20480;-63
2022/05/26 12:41:47;;;;;;;9.90;3.85;;;;;;;31.10;33.53;96716.66;5115793;28;20028;-62
2022/05/26 12:44:24;;;;;;;7.82;4.03;;;;;;;30.80;32.68;96713.91;5115606;28;20023;-62